sensor_id;sensor_type;location;lat;lon;timestamp;pressure;altitude;pressure_sealevel;temperature;humidity
78431;BME280;67727;50.236;22.452;2023-03-01T00:01:09;100989.95;;;-3.28;74.49
78431;BME280;67727;50.236;22.452;2023-03-01T00:03:36;100985.67;;;-3.24;74.15
78431;BME280;67727;50.236;22.452;2023-03-01T00:06:04;100982.05;;;-3.24;74.09
78431;BME280;67727;50.236;22.452;2023-03-01T00:08:31;100983.83;;;-3.25;74.13
78431;BME280;67727;50.236;22.452;2023-03-01T00:13:32;100979.19;;;-3.31;74.21
78431;BME280;67727;50.236;22.452;2023-03-01T00:16:02;100979.34;;;-3.34;74.18
78431;BME280;67727;50.236;22.452;2023-03-01T00:18:29;100975.86;;;-3.39;74.06
78431;BME280;67727;50.236;22.452;2023-03-01T00:20:57;100968.44;;;-3.44;73.85
78431;BME280;67727;50.236;22.452;2023-03-01T00:23:24;100959.79;;;-3.48;74.19
78431;BME280;67727;50.236;22.452;2023-03-01T00:25:51;100958.58;;;-3.53;74.32
78431;BME280;67727;50.236;22.452;2023-03-01T00:28:20;100955.48;;;-3.58;74.57
78431;BME280;67727;50.236;22.452;2023-03-01T00:30:47;100955.46;;;-3.63;74.63
78431;BME280;67727;50.236;22.452;2023-03-01T00:33:14;100952.43;;;-3.65;74.82
78431;BME280;67727;50.236;22.452;2023-03-01T00:35:41;100945.65;;;-3.64;74.40
78431;BME280;67727;50.236;22.452;2023-03-01T00:38:08;100938.02;;;-3.62;74.48
78431;BME280;67727;50.236;22.452;2023-03-01T00:40:36;100931.83;;;-3.59;74.47
78431;BME280;67727;50.236;22.452;2023-03-01T00:43:04;100928.23;;;-3.54;74.44
78431;BME280;67727;50.236;22.452;2023-03-01T00:45:32;100925.50;;;-3.50;74.62
78431;BME280;67727;50.236;22.452;2023-03-01T00:48:03;100918.38;;;-3.49;74.42
78431;BME280;67727;50.236;22.452;2023-03-01T00:50:30;100916.20;;;-3.51;74.44
78431;BME280;67727;50.236;22.452;2023-03-01T00:52:57;100917.01;;;-3.54;74.65
78431;BME280;67727;50.236;22.452;2023-03-01T00:55:25;100922.27;;;-3.57;74.76
78431;BME280;67727;50.236;22.452;2023-03-01T00:57:52;100924.33;;;-3.61;74.65
78431;BME280;67727;50.236;22.452;2023-03-01T01:00:20;100925.17;;;-3.65;74.52
78431;BME280;67727;50.236;22.452;2023-03-01T01:02:48;100924.48;;;-3.70;74.75
78431;BME280;67727;50.236;22.452;2023-03-01T01:05:15;100924.03;;;-3.77;74.76
78431;BME280;67727;50.236;22.452;2023-03-01T01:07:47;100924.42;;;-3.83;74.68
78431;BME280;67727;50.236;22.452;2023-03-01T01:10:15;100920.67;;;-3.89;74.50
78431;BME280;67727;50.236;22.452;2023-03-01T01:12:48;100919.52;;;-3.95;74.47
78431;BME280;67727;50.236;22.452;2023-03-01T01:15:15;100918.35;;;-4.01;74.54
78431;BME280;67727;50.236;22.452;2023-03-01T01:17:43;100925.58;;;-4.05;74.80
78431;BME280;67727;50.236;22.452;2023-03-01T01:20:11;100923.13;;;-4.09;74.84
78431;BME280;67727;50.236;22.452;2023-03-01T01:22:38;100926.40;;;-4.09;74.94
78431;BME280;67727;50.236;22.452;2023-03-01T01:25:05;100920.05;;;-4.05;75.03
78431;BME280;67727;50.236;22.452;2023-03-01T01:27:33;100915.09;;;-4.01;75.26
78431;BME280;67727;50.236;22.452;2023-03-01T01:30:00;100915.45;;;-3.97;75.32
78431;BME280;67727;50.236;22.452;2023-03-01T01:32:27;100918.13;;;-3.95;75.07
78431;BME280;67727;50.236;22.452;2023-03-01T01:34:54;100917.24;;;-3.94;75.22
78431;BME280;67727;50.236;22.452;2023-03-01T01:37:21;100914.52;;;-3.95;75.17
78431;BME280;67727;50.236;22.452;2023-03-01T01:39:48;100906.80;;;-3.97;74.82
78431;BME280;67727;50.236;22.452;2023-03-01T01:42:17;100906.27;;;-4.01;74.81
78431;BME280;67727;50.236;22.452;2023-03-01T01:44:46;100911.03;;;-4.04;74.86
78431;BME280;67727;50.236;22.452;2023-03-01T01:47:21;100913.39;;;-4.07;74.87
78431;BME280;67727;50.236;22.452;2023-03-01T01:49:53;100910.77;;;-4.12;74.86
78431;BME280;67727;50.236;22.452;2023-03-01T01:52:27;100900.55;;;-4.15;74.79
78431;BME280;67727;50.236;22.452;2023-03-01T01:55:09;100899.00;;;-4.20;75.12
78431;BME280;67727;50.236;22.452;2023-03-01T01:57:41;100887.94;;;-4.25;74.90
78431;BME280;67727;50.236;22.452;2023-03-01T02:02:40;100882.52;;;-4.33;74.92
78431;BME280;67727;50.236;22.452;2023-03-01T02:05:14;100881.47;;;-4.37;75.16
78431;BME280;67727;50.236;22.452;2023-03-01T02:07:44;100881.90;;;-4.39;75.35
78431;BME280;67727;50.236;22.452;2023-03-01T02:10:13;100879.33;;;-4.40;75.39
78431;BME280;67727;50.236;22.452;2023-03-01T02:12:40;100880.92;;;-4.37;75.50
78431;BME280;67727;50.236;22.452;2023-03-01T02:15:08;100886.34;;;-4.33;75.71
78431;BME280;67727;50.236;22.452;2023-03-01T02:17:35;100885.05;;;-4.31;75.77
78431;BME280;67727;50.236;22.452;2023-03-01T02:22:35;100875.95;;;-4.27;75.48
78431;BME280;67727;50.236;22.452;2023-03-01T02:30:43;100870.22;;;-4.36;75.22
78431;BME280;67727;50.236;22.452;2023-03-01T02:33:30;100872.77;;;-4.40;75.09
78431;BME280;67727;50.236;22.452;2023-03-01T02:36:23;100876.58;;;-4.46;75.01
78431;BME280;67727;50.236;22.452;2023-03-01T02:38:53;100880.89;;;-4.50;74.99
78431;BME280;67727;50.236;22.452;2023-03-01T02:41:21;100883.61;;;-4.54;75.17
78431;BME280;67727;50.236;22.452;2023-03-01T02:43:49;100885.10;;;-4.58;75.06
78431;BME280;67727;50.236;22.452;2023-03-01T02:46:23;100885.98;;;-4.63;74.99
78431;BME280;67727;50.236;22.452;2023-03-01T02:48:58;100889.81;;;-4.70;75.18
78431;BME280;67727;50.236;22.452;2023-03-01T02:54:39;100894.30;;;-4.80;75.43
78431;BME280;67727;50.236;22.452;2023-03-01T02:57:09;100897.81;;;-4.88;75.74
78431;BME280;67727;50.236;22.452;2023-03-01T02:59:37;100898.37;;;-4.94;76.02
78431;BME280;67727;50.236;22.452;2023-03-01T03:02:24;100898.65;;;-4.98;76.15
78431;BME280;67727;50.236;22.452;2023-03-01T03:05:05;100898.95;;;-4.97;76.07
78431;BME280;67727;50.236;22.452;2023-03-01T03:07:37;100903.48;;;-4.93;76.06
78431;BME280;67727;50.236;22.452;2023-03-01T03:10:13;100901.41;;;-4.87;75.99
78431;BME280;67727;50.236;22.452;2023-03-01T03:12:41;100905.64;;;-4.79;76.05
78431;BME280;67727;50.236;22.452;2023-03-01T03:15:10;100903.58;;;-4.74;76.08
78431;BME280;67727;50.236;22.452;2023-03-01T03:17:40;100902.40;;;-4.70;75.56
78431;BME280;67727;50.236;22.452;2023-03-01T03:20:10;100893.26;;;-4.70;75.17
78431;BME280;67727;50.236;22.452;2023-03-01T03:22:39;100896.44;;;-4.72;75.33
78431;BME280;67727;50.236;22.452;2023-03-01T03:25:07;100892.91;;;-4.75;75.27
78431;BME280;67727;50.236;22.452;2023-03-01T03:27:38;100893.67;;;-4.77;75.00
78431;BME280;67727;50.236;22.452;2023-03-01T03:30:07;100893.77;;;-4.80;74.95
78431;BME280;67727;50.236;22.452;2023-03-01T03:32:36;100898.17;;;-4.83;74.84
78431;BME280;67727;50.236;22.452;2023-03-01T03:35:05;100897.98;;;-4.88;74.96
78431;BME280;67727;50.236;22.452;2023-03-01T03:37:37;100900.70;;;-4.92;75.04
78431;BME280;67727;50.236;22.452;2023-03-01T03:40:24;100901.91;;;-4.97;75.13
78431;BME280;67727;50.236;22.452;2023-03-01T03:42:51;100899.65;;;-5.02;74.88
78431;BME280;67727;50.236;22.452;2023-03-01T03:45:18;100894.94;;;-5.06;74.94
78431;BME280;67727;50.236;22.452;2023-03-01T03:47:45;100901.11;;;-5.10;75.79
78431;BME280;67727;50.236;22.452;2023-03-01T03:50:14;100906.29;;;-5.16;76.40
78431;BME280;67727;50.236;22.452;2023-03-01T03:52:42;100907.83;;;-5.21;76.61
78431;BME280;67727;50.236;22.452;2023-03-01T03:55:11;100905.43;;;-5.22;76.59
78431;BME280;67727;50.236;22.452;2023-03-01T03:57:40;100904.54;;;-5.21;76.88
78431;BME280;67727;50.236;22.452;2023-03-01T04:00:10;100902.41;;;-5.19;76.90
78431;BME280;67727;50.236;22.452;2023-03-01T04:02:40;100900.88;;;-5.13;76.79
78431;BME280;67727;50.236;22.452;2023-03-01T04:05:08;100901.06;;;-5.08;76.45
78431;BME280;67727;50.236;22.452;2023-03-01T04:07:36;100899.02;;;-5.04;75.99
78431;BME280;67727;50.236;22.452;2023-03-01T04:10:05;100894.92;;;-4.99;75.73
78431;BME280;67727;50.236;22.452;2023-03-01T04:12:34;100890.88;;;-4.98;75.51
78431;BME280;67727;50.236;22.452;2023-03-01T04:15:02;100891.95;;;-4.98;75.79
78431;BME280;67727;50.236;22.452;2023-03-01T04:17:43;100890.45;;;-5.00;75.81
78431;BME280;67727;50.236;22.452;2023-03-01T04:20:14;100890.69;;;-5.02;75.83
78431;BME280;67727;50.236;22.452;2023-03-01T04:22:44;100894.39;;;-5.05;75.56
78431;BME280;67727;50.236;22.452;2023-03-01T04:25:14;100897.78;;;-5.08;75.62
78431;BME280;67727;50.236;22.452;2023-03-01T04:27:41;100894.83;;;-5.13;75.93
78431;BME280;67727;50.236;22.452;2023-03-01T04:30:09;100894.77;;;-5.17;75.78
78431;BME280;67727;50.236;22.452;2023-03-01T04:32:36;100895.60;;;-5.22;75.93
78431;BME280;67727;50.236;22.452;2023-03-01T04:35:03;100896.10;;;-5.27;75.95
78431;BME280;67727;50.236;22.452;2023-03-01T04:37:31;100895.52;;;-5.30;76.13
78431;BME280;67727;50.236;22.452;2023-03-01T04:39:58;100899.75;;;-5.33;76.10
78431;BME280;67727;50.236;22.452;2023-03-01T04:42:25;100898.33;;;-5.38;76.33
78431;BME280;67727;50.236;22.452;2023-03-01T04:44:52;100894.30;;;-5.41;76.30
78431;BME280;67727;50.236;22.452;2023-03-01T04:47:19;100897.78;;;-5.43;76.39
78431;BME280;67727;50.236;22.452;2023-03-01T04:49:46;100894.98;;;-5.41;76.60
78431;BME280;67727;50.236;22.452;2023-03-01T04:52:13;100888.34;;;-5.37;76.53
78431;BME280;67727;50.236;22.452;2023-03-01T04:54:40;100888.72;;;-5.33;76.66
78431;BME280;67727;50.236;22.452;2023-03-01T04:57:08;100887.67;;;-5.27;76.55
78431;BME280;67727;50.236;22.452;2023-03-01T04:59:35;100888.48;;;-5.20;76.59
78431;BME280;67727;50.236;22.452;2023-03-01T05:02:02;100888.20;;;-5.16;76.47
78431;BME280;67727;50.236;22.452;2023-03-01T05:04:30;100888.34;;;-5.15;76.54
78431;BME280;67727;50.236;22.452;2023-03-01T05:06:57;100886.20;;;-5.13;76.38
78431;BME280;67727;50.236;22.452;2023-03-01T05:09:25;100884.86;;;-5.14;76.26
78431;BME280;67727;50.236;22.452;2023-03-01T05:11:52;100881.67;;;-5.16;76.33
78431;BME280;67727;50.236;22.452;2023-03-01T05:14:19;100881.24;;;-5.19;76.55
78431;BME280;67727;50.236;22.452;2023-03-01T05:16:46;100880.81;;;-5.23;76.47
78431;BME280;67727;50.236;22.452;2023-03-01T05:19:13;100877.15;;;-5.27;76.76
78431;BME280;67727;50.236;22.452;2023-03-01T05:21:49;100876.73;;;-5.30;76.73
78431;BME280;67727;50.236;22.452;2023-03-01T05:24:30;100867.39;;;-5.34;76.69
78431;BME280;67727;50.236;22.452;2023-03-01T05:26:58;100867.83;;;-5.37;77.01
78431;BME280;67727;50.236;22.452;2023-03-01T05:29:26;100866.04;;;-5.40;77.00
78431;BME280;67727;50.236;22.452;2023-03-01T05:31:58;100863.86;;;-5.42;77.43
78431;BME280;67727;50.236;22.452;2023-03-01T05:34:28;100872.17;;;-5.44;77.72
78431;BME280;67727;50.236;22.452;2023-03-01T05:36:56;100871.16;;;-5.44;77.86
78431;BME280;67727;50.236;22.452;2023-03-01T05:39:25;100870.96;;;-5.44;77.81
78431;BME280;67727;50.236;22.452;2023-03-01T05:41:59;100874.80;;;-5.40;77.88
78431;BME280;67727;50.236;22.452;2023-03-01T05:44:28;100871.13;;;-5.32;77.84
78431;BME280;67727;50.236;22.452;2023-03-01T05:46:55;100869.28;;;-5.23;77.89
78431;BME280;67727;50.236;22.452;2023-03-01T05:49:23;100869.31;;;-5.13;77.70
78431;BME280;67727;50.236;22.452;2023-03-01T05:51:52;100864.64;;;-5.01;77.76
78431;BME280;67727;50.236;22.452;2023-03-01T05:54:20;100858.09;;;-4.90;77.84
78431;BME280;67727;50.236;22.452;2023-03-01T05:56:48;100860.55;;;-4.82;77.63
78431;BME280;67727;50.236;22.452;2023-03-01T05:59:15;100851.98;;;-4.72;77.39
78431;BME280;67727;50.236;22.452;2023-03-01T06:01:43;100851.54;;;-4.65;77.44
78431;BME280;67727;50.236;22.452;2023-03-01T06:04:11;100849.75;;;-4.58;77.24
78431;BME280;67727;50.236;22.452;2023-03-01T06:06:38;100854.44;;;-4.53;77.49
78431;BME280;67727;50.236;22.452;2023-03-01T06:09:06;100851.52;;;-4.49;77.37
78431;BME280;67727;50.236;22.452;2023-03-01T06:11:35;100856.71;;;-4.44;77.34
78431;BME280;67727;50.236;22.452;2023-03-01T06:14:04;100860.98;;;-4.39;77.19
78431;BME280;67727;50.236;22.452;2023-03-01T06:16:33;100865.11;;;-4.33;77.33
78431;BME280;67727;50.236;22.452;2023-03-01T06:19:00;100859.73;;;-4.27;77.36
78431;BME280;67727;50.236;22.452;2023-03-01T06:21:27;100863.27;;;-4.20;77.30
78431;BME280;67727;50.236;22.452;2023-03-01T06:23:54;100860.77;;;-4.13;77.57
78431;BME280;67727;50.236;22.452;2023-03-01T06:26:21;100859.44;;;-4.04;77.65
78431;BME280;67727;50.236;22.452;2023-03-01T06:28:48;100860.46;;;-3.95;77.84
78431;BME280;67727;50.236;22.452;2023-03-01T06:31:15;100863.98;;;-3.82;77.79
78431;BME280;67727;50.236;22.452;2023-03-01T06:33:42;100870.02;;;-3.64;77.76
78431;BME280;67727;50.236;22.452;2023-03-01T06:36:11;100873.83;;;-3.41;77.84
78431;BME280;67727;50.236;22.452;2023-03-01T06:38:38;100877.37;;;-3.17;77.65
78431;BME280;67727;50.236;22.452;2023-03-01T06:41:07;100868.05;;;-2.91;77.19
78431;BME280;67727;50.236;22.452;2023-03-01T06:43:34;100866.10;;;-2.69;76.90
78431;BME280;67727;50.236;22.452;2023-03-01T06:46:04;100862.56;;;-2.50;76.67
78431;BME280;67727;50.236;22.452;2023-03-01T06:48:34;100859.90;;;-2.33;76.39
78431;BME280;67727;50.236;22.452;2023-03-01T06:51:01;100855.97;;;-2.18;75.97
78431;BME280;67727;50.236;22.452;2023-03-01T06:53:29;100857.02;;;-2.03;75.77
78431;BME280;67727;50.236;22.452;2023-03-01T06:55:56;100853.88;;;-1.86;75.74
78431;BME280;67727;50.236;22.452;2023-03-01T06:58:24;100850.73;;;-1.71;75.19
78431;BME280;67727;50.236;22.452;2023-03-01T07:00:51;100852.27;;;-1.55;75.10
78431;BME280;67727;50.236;22.452;2023-03-01T07:03:18;100849.41;;;-1.39;74.78
78431;BME280;67727;50.236;22.452;2023-03-01T07:05:48;100844.09;;;-1.21;74.49
78431;BME280;67727;50.236;22.452;2023-03-01T07:08:16;100841.94;;;-1.02;74.22
78431;BME280;67727;50.236;22.452;2023-03-01T07:10:43;100840.79;;;-0.86;74.06
78431;BME280;67727;50.236;22.452;2023-03-01T07:13:10;100842.42;;;-0.73;73.27
78431;BME280;67727;50.236;22.452;2023-03-01T07:15:39;100848.33;;;-0.63;72.96
78431;BME280;67727;50.236;22.452;2023-03-01T07:18:07;100849.17;;;-0.52;72.67
78431;BME280;67727;50.236;22.452;2023-03-01T07:20:34;100841.05;;;-0.39;72.18
78431;BME280;67727;50.236;22.452;2023-03-01T07:23:01;100837.18;;;-0.25;71.97
78431;BME280;67727;50.236;22.452;2023-03-01T07:25:28;100838.17;;;-0.10;71.61
78431;BME280;67727;50.236;22.452;2023-03-01T07:27:56;100835.98;;;0.05;71.14
78431;BME280;67727;50.236;22.452;2023-03-01T07:30:23;100847.03;;;0.19;69.74
78431;BME280;67727;50.236;22.452;2023-03-01T07:32:55;100844.95;;;0.32;69.47
78431;BME280;67727;50.236;22.452;2023-03-01T07:35:25;100852.74;;;0.55;69.32
78431;BME280;67727;50.236;22.452;2023-03-01T07:37:53;100854.80;;;0.80;68.25
78431;BME280;67727;50.236;22.452;2023-03-01T07:40:20;100855.29;;;1.03;67.05
78431;BME280;67727;50.236;22.452;2023-03-01T07:42:47;100855.16;;;1.20;66.26
78431;BME280;67727;50.236;22.452;2023-03-01T07:45:14;100854.71;;;1.34;65.47
78431;BME280;67727;50.236;22.452;2023-03-01T07:47:41;100856.46;;;1.40;63.11
78431;BME280;67727;50.236;22.452;2023-03-01T07:50:09;100859.15;;;1.47;63.98
78431;BME280;67727;50.236;22.452;2023-03-01T07:52:36;100860.99;;;1.57;63.83
78431;BME280;67727;50.236;22.452;2023-03-01T07:55:04;100855.30;;;1.71;63.21
78431;BME280;67727;50.236;22.452;2023-03-01T07:57:31;100851.12;;;1.85;63.20
78431;BME280;67727;50.236;22.452;2023-03-01T07:59:58;100851.58;;;2.01;62.09
78431;BME280;67727;50.236;22.452;2023-03-01T08:02:25;100853.63;;;2.13;61.56
78431;BME280;67727;50.236;22.452;2023-03-01T08:04:52;100849.48;;;2.21;60.59
78431;BME280;67727;50.236;22.452;2023-03-01T08:07:19;100849.00;;;2.31;60.16
78431;BME280;67727;50.236;22.452;2023-03-01T08:09:47;100854.30;;;2.39;58.63
78431;BME280;67727;50.236;22.452;2023-03-01T08:12:14;100852.55;;;2.44;58.48
78431;BME280;67727;50.236;22.452;2023-03-01T08:14:43;100851.17;;;2.53;59.03
78431;BME280;67727;50.236;22.452;2023-03-01T08:17:10;100845.30;;;2.63;58.39
78431;BME280;67727;50.236;22.452;2023-03-01T08:19:37;100843.70;;;2.74;60.61
78431;BME280;67727;50.236;22.452;2023-03-01T08:22:04;100841.84;;;2.81;60.70
78431;BME280;67727;50.236;22.452;2023-03-01T08:24:31;100841.71;;;2.80;61.06
78431;BME280;67727;50.236;22.452;2023-03-01T08:26:58;100837.98;;;2.71;60.75
78431;BME280;67727;50.236;22.452;2023-03-01T08:29:26;100835.50;;;2.66;61.48
78431;BME280;67727;50.236;22.452;2023-03-01T08:31:53;100832.84;;;2.69;62.00
78431;BME280;67727;50.236;22.452;2023-03-01T08:34:20;100833.38;;;2.80;61.92
78431;BME280;67727;50.236;22.452;2023-03-01T08:36:47;100835.30;;;2.91;61.98
78431;BME280;67727;50.236;22.452;2023-03-01T08:39:16;100828.09;;;2.99;60.50
78431;BME280;67727;50.236;22.452;2023-03-01T08:41:43;100823.80;;;3.04;61.14
78431;BME280;67727;50.236;22.452;2023-03-01T08:44:12;100821.08;;;3.13;60.97
78431;BME280;67727;50.236;22.452;2023-03-01T08:46:41;100815.09;;;3.19;60.40
78431;BME280;67727;50.236;22.452;2023-03-01T08:49:16;100808.96;;;3.32;60.50
78431;BME280;67727;50.236;22.452;2023-03-01T08:51:44;100807.68;;;3.49;60.20
78431;BME280;67727;50.236;22.452;2023-03-01T08:54:19;100804.98;;;3.61;58.97
78431;BME280;67727;50.236;22.452;2023-03-01T08:56:47;100804.48;;;3.75;58.92
78431;BME280;67727;50.236;22.452;2023-03-01T08:59:15;100807.92;;;3.81;56.44
78431;BME280;67727;50.236;22.452;2023-03-01T09:01:43;100808.77;;;3.81;56.94
78431;BME280;67727;50.236;22.452;2023-03-01T09:04:11;100809.64;;;3.87;56.95
78431;BME280;67727;50.236;22.452;2023-03-01T09:06:39;100811.73;;;3.99;57.94
78431;BME280;67727;50.236;22.452;2023-03-01T09:09:06;100811.88;;;4.12;56.99
78431;BME280;67727;50.236;22.452;2023-03-01T09:11:34;100817.65;;;4.20;56.71
78431;BME280;67727;50.236;22.452;2023-03-01T09:14:05;100812.64;;;4.29;56.92
78431;BME280;67727;50.236;22.452;2023-03-01T09:16:32;100813.63;;;4.44;56.59
78431;BME280;67727;50.236;22.452;2023-03-01T09:19:03;100814.78;;;4.57;56.17
78431;BME280;67727;50.236;22.452;2023-03-01T09:21:30;100816.61;;;4.69;55.89
78431;BME280;67727;50.236;22.452;2023-03-01T09:23:58;100811.73;;;4.76;55.40
78431;BME280;67727;50.236;22.452;2023-03-01T09:26:25;100812.89;;;4.79;55.46
78431;BME280;67727;50.236;22.452;2023-03-01T09:28:54;100811.41;;;4.80;55.42
78431;BME280;67727;50.236;22.452;2023-03-01T09:31:23;100819.69;;;4.72;54.70
78431;BME280;67727;50.236;22.452;2023-03-01T09:33:52;100814.80;;;4.57;54.67
78431;BME280;67727;50.236;22.452;2023-03-01T09:36:22;100813.52;;;4.50;55.83
78431;BME280;67727;50.236;22.452;2023-03-01T09:38:50;100813.58;;;4.57;56.20
78431;BME280;67727;50.236;22.452;2023-03-01T09:41:29;100816.70;;;4.60;55.19
78431;BME280;67727;50.236;22.452;2023-03-01T09:44:03;100812.52;;;4.59;55.41
78431;BME280;67727;50.236;22.452;2023-03-01T09:46:40;100808.51;;;4.59;54.98
78431;BME280;67727;50.236;22.452;2023-03-01T09:49:23;100812.51;;;4.67;55.34
78431;BME280;67727;50.236;22.452;2023-03-01T09:54:41;100811.50;;;4.88;53.45
78431;BME280;67727;50.236;22.452;2023-03-01T10:00:24;100812.70;;;4.81;53.37
78431;BME280;67727;50.236;22.452;2023-03-01T10:03:16;100812.67;;;4.79;54.00
78431;BME280;67727;50.236;22.452;2023-03-01T10:05:55;100811.48;;;4.86;54.29
78431;BME280;67727;50.236;22.452;2023-03-01T10:09:16;100806.42;;;4.95;53.67
78431;BME280;67727;50.236;22.452;2023-03-01T10:11:31;100806.81;;;5.04;53.00
78431;BME280;67727;50.236;22.452;2023-03-01T10:14:32;100807.96;;;5.10;53.35
78431;BME280;67727;50.236;22.452;2023-03-01T10:19:52;100797.78;;;5.29;53.20
78431;BME280;67727;50.236;22.452;2023-03-01T10:22:29;100791.83;;;5.38;52.12
78431;BME280;67727;50.236;22.452;2023-03-01T10:24:59;100785.00;;;5.42;52.45
78431;BME280;67727;50.236;22.452;2023-03-01T10:27:42;100785.13;;;5.45;51.29
78431;BME280;67727;50.236;22.452;2023-03-01T10:30:20;100783.33;;;5.46;51.33
78431;BME280;67727;50.236;22.452;2023-03-01T10:32:50;100778.83;;;5.50;51.87
78431;BME280;67727;50.236;22.452;2023-03-01T10:35:24;100778.60;;;5.62;52.60
78431;BME280;67727;50.236;22.452;2023-03-01T10:38:05;100774.88;;;5.74;51.25
78431;BME280;67727;50.236;22.452;2023-03-01T10:40:34;100768.92;;;5.83;52.53
78431;BME280;67727;50.236;22.452;2023-03-01T10:43:05;100766.13;;;5.96;51.86
78431;BME280;67727;50.236;22.452;2023-03-01T10:45:38;100772.44;;;6.05;50.78
78431;BME280;67727;50.236;22.452;2023-03-01T10:50:48;100776.86;;;6.13;50.85
78431;BME280;67727;50.236;22.452;2023-03-01T10:56:01;100766.84;;;6.24;49.28
78431;BME280;67727;50.236;22.452;2023-03-01T10:58:30;100761.04;;;6.29;49.61
78431;BME280;67727;50.236;22.452;2023-03-01T11:03:37;100761.66;;;6.28;48.10
78431;BME280;67727;50.236;22.452;2023-03-01T11:06:20;100756.88;;;6.31;47.94
78431;BME280;67727;50.236;22.452;2023-03-01T11:08:51;100754.24;;;6.29;47.22
78431;BME280;67727;50.236;22.452;2023-03-01T11:11:35;100754.38;;;6.25;45.74
78431;BME280;67727;50.236;22.452;2023-03-01T11:16:34;100748.52;;;6.19;46.90
78431;BME280;67727;50.236;22.452;2023-03-01T11:24:09;100734.20;;;6.32;44.74
78431;BME280;67727;50.236;22.452;2023-03-01T11:26:40;100726.53;;;6.29;44.54
78431;BME280;67727;50.236;22.452;2023-03-01T11:29:50;100723.73;;;6.26;44.37
78431;BME280;67727;50.236;22.452;2023-03-01T11:32:20;100724.02;;;6.34;45.53
78431;BME280;67727;50.236;22.452;2023-03-01T11:34:59;100717.78;;;6.41;45.02
78431;BME280;67727;50.236;22.452;2023-03-01T11:40:24;100710.55;;;6.46;43.63
78431;BME280;67727;50.236;22.452;2023-03-01T11:51:09;100699.75;;;6.49;43.51
78431;BME280;67727;50.236;22.452;2023-03-01T11:54:13;100695.77;;;6.52;43.86
78431;BME280;67727;50.236;22.452;2023-03-01T11:56:41;100690.86;;;6.57;42.55
78431;BME280;67727;50.236;22.452;2023-03-01T12:02:28;100690.27;;;6.56;42.21
78431;BME280;67727;50.236;22.452;2023-03-01T12:10:43;100683.71;;;6.54;41.72
78431;BME280;67727;50.236;22.452;2023-03-01T12:18:54;100682.69;;;6.60;41.85
78431;BME280;67727;50.236;22.452;2023-03-01T12:48:34;100649.09;;;6.69;40.73
78431;BME280;67727;50.236;22.452;2023-03-01T12:51:07;100647.49;;;6.63;39.11
78431;BME280;67727;50.236;22.452;2023-03-01T12:53:51;100644.67;;;6.57;40.10
78431;BME280;67727;50.236;22.452;2023-03-01T12:56:31;100645.94;;;6.55;39.81
78431;BME280;67727;50.236;22.452;2023-03-01T12:59:18;100641.95;;;6.53;40.25
78431;BME280;67727;50.236;22.452;2023-03-01T13:23:07;100628.94;;;6.24;39.26
78431;BME280;67727;50.236;22.452;2023-03-01T13:30:58;100615.73;;;6.16;39.43
78431;BME280;67727;50.236;22.452;2023-03-01T13:36:02;100615.50;;;6.19;39.77
78431;BME280;67727;50.236;22.452;2023-03-01T13:38:47;100609.08;;;6.18;39.61
78431;BME280;67727;50.236;22.452;2023-03-01T13:42:02;100603.67;;;6.18;39.43
78431;BME280;67727;50.236;22.452;2023-03-01T13:49:49;100606.17;;;6.13;39.08
78431;BME280;67727;50.236;22.452;2023-03-01T13:55:19;100608.40;;;6.14;40.09
78431;BME280;67727;50.236;22.452;2023-03-01T13:57:51;100606.72;;;6.13;39.11
78431;BME280;67727;50.236;22.452;2023-03-01T14:00:25;100609.77;;;6.10;38.29
78431;BME280;67727;50.236;22.452;2023-03-01T14:03:00;100604.86;;;6.08;39.08
78431;BME280;67727;50.236;22.452;2023-03-01T14:05:28;100607.55;;;6.07;39.57
78431;BME280;67727;50.236;22.452;2023-03-01T14:07:56;100605.14;;;6.05;38.48
78431;BME280;67727;50.236;22.452;2023-03-01T14:10:31;100600.94;;;6.00;39.15
78431;BME280;67727;50.236;22.452;2023-03-01T14:13:23;100595.00;;;5.95;39.01
78431;BME280;67727;50.236;22.452;2023-03-01T14:18:47;100594.48;;;5.90;39.76
78431;BME280;67727;50.236;22.452;2023-03-01T14:21:18;100594.77;;;5.87;38.98
78431;BME280;67727;50.236;22.452;2023-03-01T14:23:45;100588.48;;;5.82;39.40
78431;BME280;67727;50.236;22.452;2023-03-01T14:26:20;100586.02;;;5.78;39.86
78431;BME280;67727;50.236;22.452;2023-03-01T14:28:48;100584.23;;;5.74;39.69
78431;BME280;67727;50.236;22.452;2023-03-01T14:31:32;100579.85;;;5.69;39.69
78431;BME280;67727;50.236;22.452;2023-03-01T14:34:02;100580.11;;;5.64;40.28
78431;BME280;67727;50.236;22.452;2023-03-01T14:36:32;100576.95;;;5.60;40.38
78431;BME280;67727;50.236;22.452;2023-03-01T14:39:00;100575.22;;;5.58;40.79
78431;BME280;67727;50.236;22.452;2023-03-01T14:41:35;100575.44;;;5.55;41.08
78431;BME280;67727;50.236;22.452;2023-03-01T14:44:11;100571.77;;;5.52;41.17
78431;BME280;67727;50.236;22.452;2023-03-01T14:46:41;100568.86;;;5.50;41.81
78431;BME280;67727;50.236;22.452;2023-03-01T14:49:24;100566.45;;;5.47;42.48
78431;BME280;67727;50.236;22.452;2023-03-01T14:52:01;100567.21;;;5.44;42.72
78431;BME280;67727;50.236;22.452;2023-03-01T14:54:47;100569.41;;;5.40;42.36
78431;BME280;67727;50.236;22.452;2023-03-01T14:57:26;100572.15;;;5.37;42.73
78431;BME280;67727;50.236;22.452;2023-03-01T14:59:55;100567.16;;;5.34;42.76
78431;BME280;67727;50.236;22.452;2023-03-01T15:02:26;100566.67;;;5.31;43.19
78431;BME280;67727;50.236;22.452;2023-03-01T15:04:58;100567.00;;;5.29;43.82
78431;BME280;67727;50.236;22.452;2023-03-01T15:07:34;100564.16;;;5.27;43.55
78431;BME280;67727;50.236;22.452;2023-03-01T15:10:04;100567.23;;;5.26;43.27
78431;BME280;67727;50.236;22.452;2023-03-01T15:12:35;100567.23;;;5.24;43.62
78431;BME280;67727;50.236;22.452;2023-03-01T15:18:01;100565.95;;;5.17;43.89
78431;BME280;67727;50.236;22.452;2023-03-01T15:20:30;100561.74;;;5.13;43.74